Time;durP1;ratioP1;P1;durP2;ratioP2;P2;SDS_P1;SDS_P2;PMS_P1;PMS_P2;Temp;Humidity;BMP_temperature;BMP_pressure;BME280_temperature;BME280_humidity;BME280_pressure;Samples;Min_cycle;Max_cycle;Signal;HPM_P1;HPM_P2
2022/04/25 00:00:29;;;;;;;;;;;;;;;;;;5059637;28;1390;-76
2022/04/25 00:02:55;;;;;;;;;;;;;;;;;;5061093;28;1894;-77
2022/04/25 00:05:21;;;;;;;;;;;;;;;;;;5061653;28;1322;-75
2022/04/25 00:07:46;;;;;;;;;;;;;;;;;;5073710;28;1593;-73
2022/04/25 00:10:11;;;;;;;;;;;;;;;;;;5060770;28;1208;-71
2022/04/25 00:12:36;;;;;;;;;;;;;;;;;;5060016;28;1251;-72
2022/04/25 00:15:02;;;;;;;;;;;;;;;;;;5060314;28;1364;-73
2022/04/25 00:17:27;;;;;;;;;;;;;;;;;;5060935;28;1357;-73
2022/04/25 00:19:52;;;;;;;;;;;;;;;;;;5060963;28;1338;-72
2022/04/25 00:22:17;;;;;;;;;;;;;;;;;;5059381;28;1959;-72
2022/04/25 00:24:44;;;;;;;;;;;;;;;;;;5061128;28;1231;-72
2022/04/25 00:27:09;;;;;;;;;;;;;;;;;;5059810;28;1351;-72
2022/04/25 00:29:35;;;;;;;;;;;;;;;;;;5059638;28;1251;-72
2022/04/25 00:32:00;;;;;;;;;;;;;;;;;;5061289;28;1274;-72
2022/04/25 00:34:25;;;;;;;;;;;;;;;;;;5060713;28;1235;-72
2022/04/25 00:36:50;;;;;;;;;;;;;;;;;;5061400;28;1326;-72
2022/04/25 00:39:15;;;;;;;;;;;;;;;;;;5060435;28;1251;-72
2022/04/25 00:41:41;;;;;;;;;;;;;;;;;;5060117;28;1550;-72
2022/04/25 00:44:06;;;;;;;;;;;;;;;;;;5060554;28;1961;-71
2022/04/25 00:46:31;;;;;;;;;;;;;;;;;;5060913;28;1148;-71
2022/04/25 00:48:56;;;;;;;;;;;;;;;;;;5060366;28;1275;-70
2022/04/25 00:51:22;;;;;;;;;;;;;;;;;;5059035;28;1291;-70
2022/04/25 00:53:47;;;;;;;;;;;;;;;;;;5059945;28;1368;-70
2022/04/25 00:56:16;;;;;;;;;;;;;;;;;;5059270;28;1346;-71
2022/04/25 00:58:46;;;;;;;;;;;;;;;;;;5060594;28;1306;-70
2022/04/25 01:01:12;;;;;;;;;;;;;;;;;;5060254;28;1404;-71
2022/04/25 01:03:37;;;;;;;;;;;;;;;;;;5060485;28;1893;-70
2022/04/25 01:06:02;;;;;;;;;;;;;;;;;;5059860;28;1337;-72
2022/04/25 01:08:27;;;;;;;;;;;;;;;;;;5057336;28;1385;-72
2022/04/25 01:10:52;;;;;;;;;;;;;;;;;;5059691;28;1346;-72
2022/04/25 01:13:18;;;;;;;;;;;;;;;;;;5060081;28;1322;-71
2022/04/25 01:15:43;;;;;;;;;;;;;;;;;;5060222;28;1258;-72
2022/04/25 01:18:08;;;;;;;;;;;;;;;;;;5059930;28;1279;-72
2022/04/25 01:20:33;;;;;;;;;;;;;;;;;;5058911;28;1367;-71
2022/04/25 01:28:32;;;;;;;;;;;;;;;;;;5060118;28;1274;-72
2022/04/25 01:30:57;;;;;;;;;;;;;;;;;;5060172;28;1294;-72
2022/04/25 01:33:23;;;;;;;;;;;;;;;;;;5060228;28;1183;-71
2022/04/25 01:35:48;;;;;;;;;;;;;;;;;;5059282;28;1246;-72
2022/04/25 01:38:13;;;;;;;;;;;;;;;;;;5059464;28;1261;-71
2022/04/25 01:40:38;;;;;;;;;;;;;;;;;;5058185;28;1450;-72
2022/04/25 01:43:03;;;;;;;;;;;;;;;;;;5060054;28;1973;-72
2022/04/25 01:45:29;;;;;;;;;;;;;;;;;;5060327;28;1243;-71
2022/04/25 01:47:54;;;;;;;;;;;;;;;;;;5059525;28;1405;-70
2022/04/25 01:50:19;;;;;;;;;;;;;;;;;;5058379;28;1340;-70
2022/04/25 01:52:45;;;;;;;;;;;;;;;;;;5059875;28;1366;-70
2022/04/25 01:55:10;;;;;;;;;;;;;;;;;;5059663;28;1231;-70
2022/04/25 01:57:35;;;;;;;;;;;;;;;;;;5058738;28;1400;-70
2022/04/25 02:00:00;;;;;;;;;;;;;;;;;;5059373;28;1326;-70
2022/04/25 02:02:26;;;;;;;;;;;;;;;;;;5059429;28;1964;-70
2022/04/25 02:04:51;;;;;;;;;;;;;;;;;;5056881;28;1371;-70
2022/04/25 02:07:16;;;;;;;;;;;;;;;;;;5057191;28;1349;-70
2022/04/25 02:09:42;;;;;;;;;;;;;;;;;;5059162;28;1346;-70
2022/04/25 02:12:07;;;;;;;;;;;;;;;;;;5058754;28;1340;-71
2022/04/25 02:14:33;;;;;;;;;;;;;;;;;;5058825;28;1227;-71
2022/04/25 02:16:59;;;;;;;;;;;;;;;;;;5059425;28;1329;-71
2022/04/25 02:19:25;;;;;;;;;;;;;;;;;;5057959;28;1376;-71
2022/04/25 02:21:51;;;;;;;;;;;;;;;;;;5058968;28;1278;-71
2022/04/25 02:24:16;;;;;;;;;;;;;;;;;;5059621;28;1960;-71
2022/04/25 02:26:41;;;;;;;;;;;;;;;;;;5058734;28;1399;-71
2022/04/25 02:29:06;;;;;;;;;;;;;;;;;;5059542;28;1377;-71
2022/04/25 02:31:31;;;;;;;;;;;;;;;;;;5060303;28;1116;-72
2022/04/25 02:33:57;;;;;;;;;;;;;;;;;;5059856;28;1181;-72
2022/04/25 02:36:23;;;;;;;;;;;;;;;;;;5059070;28;1274;-72
2022/04/25 02:38:49;;;;;;;;;;;;;;;;;;5058998;28;1370;-72
2022/04/25 02:41:15;;;;;;;;;;;;;;;;;;5058023;28;1404;-72
2022/04/25 02:43:41;;;;;;;;;;;;;;;;;;5057605;28;1967;-72
2022/04/25 02:46:08;;;;;;;;;;;;;;;;;;5058402;28;1376;-72
2022/04/25 02:48:34;;;;;;;;;;;;;;;;;;5060288;28;1326;-72
2022/04/25 02:51:00;;;;;;;;;;;;;;;;;;5062540;28;1301;-72
2022/04/25 02:53:25;;;;;;;;;;;;;;;;;;5061273;28;1211;-72
2022/04/25 02:55:52;;;;;;;;;;;;;;;;;;5062868;28;1289;-72
2022/04/25 02:58:17;;;;;;;;;;;;;;;;;;5060487;28;1328;-72
2022/04/25 03:00:45;;;;;;;;;;;;;;;;;;5062119;28;1258;-72
2022/04/25 03:03:10;;;;;;;;;;;;;;;;;;5061828;28;1905;-70
2022/04/25 03:05:36;;;;;;;;;;;;;;;;;;5061203;28;1312;-72
2022/04/25 03:08:02;;;;;;;;;;;;;;;;;;5061420;28;1329;-72
2022/04/25 03:10:27;;;;;;;;;;;;;;;;;;5060645;28;1397;-72
2022/04/25 03:12:52;;;;;;;;;;;;;;;;;;5062410;28;1306;-71
2022/04/25 03:15:18;;;;;;;;;;;;;;;;;;5061154;28;1294;-71
2022/04/25 03:17:44;;;;;;;;;;;;;;;;;;5062329;28;1295;-71
2022/04/25 03:20:09;;;;;;;;;;;;;;;;;;5062524;28;1258;-71
2022/04/25 03:22:35;;;;;;;;;;;;;;;;;;5060903;28;1890;-71
2022/04/25 03:25:00;;;;;;;;;;;;;;;;;;5061218;28;1399;-71
2022/04/25 03:27:25;;;;;;;;;;;;;;;;;;5059913;28;1320;-71
2022/04/25 03:29:50;;;;;;;;;;;;;;;;;;5061716;28;1326;-72
2022/04/25 03:32:15;;;;;;;;;;;;;;;;;;5062109;28;1239;-74
2022/04/25 03:34:41;;;;;;;;;;;;;;;;;;5061653;28;1255;-72
2022/04/25 03:37:07;;;;;;;;;;;;;;;;;;5061953;28;1313;-73
2022/04/25 03:39:32;;;;;;;;;;;;;;;;;;5060337;28;1352;-73
2022/04/25 03:41:57;;;;;;;;;;;;;;;;;;5061535;28;1159;-72
2022/04/25 03:44:22;;;;;;;;;;;;;;;;;;5061084;28;1902;-72
2022/04/25 03:46:47;;;;;;;;;;;;;;;;;;5060039;28;1305;-72
2022/04/25 03:49:13;;;;;;;;;;;;;;;;;;5059814;28;1292;-72
2022/04/25 03:51:39;;;;;;;;;;;;;;;;;;5061632;28;1223;-71
2022/04/25 03:54:04;;;;;;;;;;;;;;;;;;5060206;28;1467;-72
2022/04/25 03:59:13;;;;;;;;;;;;;;;;;;5060998;28;1333;-72
2022/04/25 04:01:38;;;;;;;;;;;;;;;;;;5060101;28;1299;-72
2022/04/25 04:04:05;;;;;;;;;;;;;;;;;;5062344;28;1951;-72
2022/04/25 04:06:33;;;;;;;;;;;;;;;;;;5061142;28;1251;-72
2022/04/25 04:08:58;;;;;;;;;;;;;;;;;;5061455;28;1337;-73
2022/04/25 04:11:23;;;;;;;;;;;;;;;;;;5059233;28;1415;-72
2022/04/25 04:13:48;;;;;;;;;;;;;;;;;;5060425;28;1308;-72
2022/04/25 04:16:14;;;;;;;;;;;;;;;;;;5058993;28;1275;-72
2022/04/25 04:18:42;;;;;;;;;;;;;;;;;;5061342;28;1353;-72
2022/04/25 04:21:07;;;;;;;;;;;;;;;;;;5059153;28;1451;-72
2022/04/25 04:23:33;;;;;;;;;;;;;;;;;;5060606;28;1898;-72
2022/04/25 04:25:58;;;;;;;;;;;;;;;;;;5061505;28;1247;-72
2022/04/25 04:28:23;;;;;;;;;;;;;;;;;;5056900;28;1414;-72
2022/04/25 04:30:48;;;;;;;;;;;;;;;;;;5060854;28;1337;-72
2022/04/25 04:33:14;;;;;;;;;;;;;;;;;;5061335;28;1369;-72
2022/04/25 04:38:22;;;;;;;;;;;;;;;;;;5060167;28;1370;-72
2022/04/25 04:40:48;;;;;;;;;;;;;;;;;;5059493;28;1318;-72
2022/04/25 04:43:13;;;;;;;;;;;;;;;;;;5058961;28;1963;-72
2022/04/25 04:45:38;;;;;;;;;;;;;;;;;;5060889;28;1314;-72
2022/04/25 04:48:03;;;;;;;;;;;;;;;;;;5077829;28;1328;-72
2022/04/25 04:50:29;;;;;;;;;;;;;;;;;;5059839;28;1395;-72
2022/04/25 04:52:58;;;;;;;;;;;;;;;;;;5058757;28;1290;-72
2022/04/25 04:55:23;;;;;;;;;;;;;;;;;;5059482;28;1387;-73
2022/04/25 04:57:48;;;;;;;;;;;;;;;;;;5060096;28;1334;-72
2022/04/25 05:00:15;;;;;;;;;;;;;;;;;;5060289;28;1307;-71
2022/04/25 05:02:40;;;;;;;;;;;;;;;;;;5060779;28;1894;-73
2022/04/25 05:05:05;;;;;;;;;;;;;;;;;;5059839;28;1376;-75
2022/04/25 05:07:31;;;;;;;;;;;;;;;;;;5059578;28;1357;-75
2022/04/25 05:09:56;;;;;;;;;;;;;;;;;;5059476;28;1248;-77
2022/04/25 05:12:21;;;;;;;;;;;;;;;;;;5057352;28;1259;-73
2022/04/25 05:14:47;;;;;;;;;;;;;;;;;;5059394;28;1259;-73
2022/04/25 05:17:12;;;;;;;;;;;;;;;;;;5060097;28;1314;-71
2022/04/25 05:19:37;;;;;;;;;;;;;;;;;;5058875;28;1447;-73
2022/04/25 05:22:03;;;;;;;;;;;;;;;;;;5058827;28;1320;-75
2022/04/25 05:24:28;;;;;;;;;;;;;;;;;;5060038;28;1898;-74
2022/04/25 05:26:53;;;;;;;;;;;;;;;;;;5060144;28;1310;-74
2022/04/25 05:29:18;;;;;;;;;;;;;;;;;;5059304;28;1327;-72
2022/04/25 05:31:44;;;;;;;;;;;;;;;;;;5060010;28;1357;-74
2022/04/25 05:34:09;;;;;;;;;;;;;;;;;;5058228;28;1375;-72
2022/04/25 05:36:35;;;;;;;;;;;;;;;;;;5058278;28;1213;-73
2022/04/25 05:39:00;;;;;;;;;;;;;;;;;;5058493;28;1412;-74
2022/04/25 05:41:25;;;;;;;;;;;;;;;;;;5059138;28;1235;-72
2022/04/25 05:43:50;;;;;;;;;;;;;;;;;;5058482;28;1902;-71
2022/04/25 05:46:16;;;;;;;;;;;;;;;;;;5056760;28;1355;-71
2022/04/25 05:54:10;;;;;;;;;;;;;;;;;;5058129;28;1227;-71
2022/04/25 05:56:35;;;;;;;;;;;;;;;;;;5058104;28;1212;-71
2022/04/25 05:59:01;;;;;;;;;;;;;;;;;;5058701;28;1251;-70
2022/04/25 06:01:26;;;;;;;;;;;;;;;;;;5059180;28;1263;-71
2022/04/25 06:03:51;;;;;;;;;;;;;;;;;;5060104;28;1905;-71
2022/04/25 06:06:21;;;;;;;;;;;;;;;;;;5058202;28;1426;-71
2022/04/25 06:08:46;;;;;;;;;;;;;;;;;;5057153;28;1317;-71
2022/04/25 06:11:11;;;;;;;;;;;;;;;;;;5059821;28;1267;-70
2022/04/25 06:13:36;;;;;;;;;;;;;;;;;;5058077;28;1436;-71
2022/04/25 06:16:01;;;;;;;;;;;;;;;;;;5060053;28;1227;-70
2022/04/25 06:18:27;;;;;;;;;;;;;;;;;;5058324;28;1349;-69
2022/04/25 06:20:52;;;;;;;;;;;;;;;;;;5057281;28;1468;-69
2022/04/25 06:23:18;;;;;;;;;;;;;;;;;;5061888;28;1965;-69
2022/04/25 06:25:43;;;;;;;;;;;;;;;;;;5062484;28;1322;-70
2022/04/25 06:28:08;;;;;;;;;;;;;;;;;;5062612;28;1306;-70
2022/04/25 06:30:34;;;;;;;;;;;;;;;;;;5057510;28;1325;-69
2022/04/25 06:33:00;;;;;;;;;;;;;;;;;;5060954;28;1322;-75
2022/04/25 06:35:26;;;;;;;;;;;;;;;;;;5062996;28;1352;-71
2022/04/25 06:37:51;;;;;;;;;;;;;;;;;;5060758;28;1278;-70
2022/04/25 06:40:17;;;;;;;;;;;;;;;;;;5061943;28;1251;-70
2022/04/25 06:42:42;;;;;;;;;;;;;;;;;;5061435;28;1899;-71
2022/04/25 06:45:08;;;;;;;;;;;;;;;;;;5061605;28;1391;-70
2022/04/25 06:47:33;;;;;;;;;;;;;;;;;;5061874;28;1323;-70
2022/04/25 06:49:59;;;;;;;;;;;;;;;;;;5061831;28;1304;-70
2022/04/25 06:52:24;;;;;;;;;;;;;;;;;;5062498;28;1448;-70
2022/04/25 06:54:50;;;;;;;;;;;;;;;;;;5062655;28;1274;-70
2022/04/25 06:57:15;;;;;;;;;;;;;;;;;;5061209;28;1270;-70
2022/04/25 06:59:42;;;;;;;;;;;;;;;;;;5062058;28;1246;-70
2022/04/25 07:02:07;;;;;;;;;;;;;;;;;;5062403;28;1239;-70
2022/04/25 07:04:32;;;;;;;;;;;;;;;;;;5060199;28;1902;-70
2022/04/25 07:06:57;;;;;;;;;;;;;;;;;;5059002;28;1407;-68
2022/04/25 07:09:23;;;;;;;;;;;;;;;;;;5060909;28;1304;-69
2022/04/25 07:11:48;;;;;;;;;;;;;;;;;;5061736;28;1322;-69
2022/04/25 07:14:14;;;;;;;;;;;;;;;;;;5062453;28;1269;-71
2022/04/25 07:16:40;;;;;;;;;;;;;;;;;;5059672;28;1387;-70
2022/04/25 07:19:06;;;;;;;;;;;;;;;;;;5059897;28;1549;-71
2022/04/25 07:29:47;;;;;;;;;;;;;;;;;;5061446;28;1411;-67
2022/04/25 07:32:13;;;;;;;;;;;;;;;;;;5062997;28;1318;-67
2022/04/25 07:34:38;;;;;;;;;;;;;;;;;;5060635;28;1340;-69
2022/04/25 07:37:03;;;;;;;;;;;;;;;;;;5062955;28;1220;-67
2022/04/25 07:39:29;;;;;;;;;;;;;;;;;;5062788;28;1294;-68
2022/04/25 07:41:54;;;;;;;;;;;;;;;;;;5062439;28;1352;-68
2022/04/25 07:44:19;;;;;;;;;;;;;;;;;;5061212;28;1952;-69
2022/04/25 07:46:45;;;;;;;;;;;;;;;;;;5061747;28;1399;-68
2022/04/25 07:49:10;;;;;;;;;;;;;;;;;;5059608;28;1364;-68
2022/04/25 07:51:36;;;;;;;;;;;;;;;;;;5059061;28;1429;-68
2022/04/25 07:54:04;;;;;;;;;;;;;;;;;;5058225;28;1364;-68
2022/04/25 07:56:29;;;;;;;;;;;;;;;;;;5059880;28;1384;-67
2022/04/25 07:58:54;;;;;;;;;;;;;;;;;;5059940;28;1330;-66
2022/04/25 08:01:20;;;;;;;;;;;;;;;;;;5058006;28;1515;-67
2022/04/25 08:03:45;;;;;;;;;;;;;;;;;;5058565;28;1959;-66
2022/04/25 08:06:11;;;;;;;;;;;;;;;;;;5060962;28;1258;-66
2022/04/25 08:08:37;;;;;;;;;;;;;;;;;;5060975;28;1267;-66
2022/04/25 08:11:02;;;;;;;;;;;;;;;;;;5060504;28;1270;-66
2022/04/25 08:18:55;;;;;;;;;;;;;;;;;;5059933;28;1492;-65
2022/04/25 08:21:20;;;;;;;;;;;;;;;;;;5059683;28;1338;-65
2022/04/25 08:23:45;;;;;;;;;;;;;;;;;;5059824;28;1943;-65
2022/04/25 08:26:11;;;;;;;;;;;;;;;;;;5060278;28;1364;-66
2022/04/25 08:28:37;;;;;;;;;;;;;;;;;;5058789;28;1309;-66
2022/04/25 08:31:02;;;;;;;;;;;;;;;;;;5057991;28;1657;-65
2022/04/25 08:33:27;;;;;;;;;;;;;;;;;;5059161;28;1367;-66
2022/04/25 08:35:52;;;;;;;;;;;;;;;;;;5060816;28;1188;-66
2022/04/25 08:38:17;;;;;;;;;;;;;;;;;;5060313;28;1318;-66
2022/04/25 08:40:44;;;;;;;;;;;;;;;;;;5058588;28;1408;-65
2022/04/25 08:43:09;;;;;;;;;;;;;;;;;;5060904;28;1889;-65
2022/04/25 08:45:37;;;;;;;;;;;;;;;;;;5059343;28;1362;-65
2022/04/25 08:48:03;;;;;;;;;;;;;;;;;;5058596;28;1337;-68
2022/04/25 08:50:29;;;;;;;;;;;;;;;;;;5059491;28;1349;-67
2022/04/25 08:52:56;;;;;;;;;;;;;;;;;;5056556;28;1399;-66
2022/04/25 08:55:21;;;;;;;;;;;;;;;;;;5059648;28;1203;-66
2022/04/25 08:57:48;;;;;;;;;;;;;;;;;;5058909;28;1263;-67
2022/04/25 09:00:13;;;;;;;;;;;;;;;;;;5060418;28;1330;-66
2022/04/25 09:02:39;;;;;;;;;;;;;;;;;;5058255;28;1894;-66
2022/04/25 09:05:05;;;;;;;;;;;;;;;;;;5060180;28;1191;-69
2022/04/25 09:07:30;;;;;;;;;;;;;;;;;;5059766;28;1275;-70
2022/04/25 09:09:55;;;;;;;;;;;;;;;;;;5060068;28;1290;-68
2022/04/25 09:12:21;;;;;;;;;;;;;;;;;;5060022;28;1322;-67
2022/04/25 09:14:46;;;;;;;;;;;;;;;;;;5059813;28;1254;-67
2022/04/25 09:17:12;;;;;;;;;;;;;;;;;;5058953;28;1637;-67
2022/04/25 09:19:38;;;;;;;;;;;;;;;;;;5053647;28;1334;-70
2022/04/25 09:22:04;;;;;;;;;;;;;;;;;;5056825;28;1403;-71
2022/04/25 09:24:32;;;;;;;;;;;;;;;;;;5058854;28;1906;-69
2022/04/25 09:27:07;;;;;;;;;;;;;;;;;;5059316;28;1219;-71
2022/04/25 09:29:33;;;;;;;;;;;;;;;;;;5059272;28;1290;-70
2022/04/25 09:31:58;;;;;;;;;;;;;;;;;;5057804;28;1501;-69
2022/04/25 09:37:08;;;;;;;;;;;;;;;;;;5057747;28;1380;-70
2022/04/25 09:39:33;;;;;;;;;;;;;;;;;;5057597;28;1272;-73
2022/04/25 09:42:00;;;;;;;;;;;;;;;;;;5059651;28;1274;-73
2022/04/25 09:44:25;;;;;;;;;;;;;;;;;;5058996;28;1964;-73
2022/04/25 09:46:50;;;;;;;;;;;;;;;;;;5059434;28;1431;-73
2022/04/25 09:49:20;;;;;;;;;;;;;;;;;;5059760;28;1307;-76
2022/04/25 09:52:01;;;;;;;;;;;;;;;;;;5058089;28;1320;-73
2022/04/25 09:54:27;;;;;;;;;;;;;;;;;;5059603;28;1272;-73
2022/04/25 09:56:52;;;;;;;;;;;;;;;;;;5059992;28;1344;-73
2022/04/25 09:59:18;;;;;;;;;;;;;;;;;;5059733;28;1370;-72
2022/04/25 10:01:45;;;;;;;;;;;;;;;;;;5060113;28;1350;-72
2022/04/25 10:04:31;;;;;;;;;;;;;;;;;;5061271;28;1898;-76
2022/04/25 10:06:59;;;;;;;;;;;;;;;;;;5061152;28;1522;-73
2022/04/25 10:09:24;;;;;;;;;;;;;;;;;;5060850;28;1446;-73
2022/04/25 10:11:52;;;;;;;;;;;;;;;;;;5061425;28;1446;-74
2022/04/25 10:14:17;;;;;;;;;;;;;;;;;;5064194;28;1415;-75
2022/04/25 10:16:43;;;;;;;;;;;;;;;;;;5061115;28;1486;-78
2022/04/25 10:19:08;;;;;;;;;;;;;;;;;;5059619;28;1369;-74
2022/04/25 10:21:34;;;;;;;;;;;;;;;;;;5062934;28;1132;-75
2022/04/25 10:23:59;;;;;;;;;;;;;;;;;;5062953;28;1972;-75
2022/04/25 10:26:25;;;;;;;;;;;;;;;;;;5063952;28;1413;-75
2022/04/25 10:28:55;;;;;;;;;;;;;;;;;;5061395;28;1391;-75
2022/04/25 10:31:26;;;;;;;;;;;;;;;;;;5063065;28;1360;-76
2022/04/25 10:33:52;;;;;;;;;;;;;;;;;;5065540;28;1463;-76
2022/04/25 10:36:36;;;;;;;;;;;;;;;;;;5067542;28;1277;-76
2022/04/25 10:39:13;;;;;;;;;;;;;;;;;;5062947;28;1302;-76
2022/04/25 10:44:44;;;;;;;;;;;;;;;;;;5065461;28;1898;-75
2022/04/25 10:47:14;;;;;;;;;;;;;;;;;;5063684;28;1315;-75
2022/04/25 10:49:44;;;;;;;;;;;;;;;;;;5062169;28;1302;-78
2022/04/25 10:52:28;;;;;;;;;;;;;;;;;;5060873;28;1322;-77
2022/04/25 10:55:09;;;;;;;;;;;;;;;;;;5065931;28;1301;-77
2022/04/25 10:57:35;;;;;;;;;;;;;;;;;;5065156;28;1655;-77
2022/04/25 11:00:00;;;;;;;;;;;;;;;;;;5064350;28;1315;-78
2022/04/25 11:02:26;;;;;;;;;;;;;;;;;;5067354;28;1886;-78
2022/04/25 11:05:10;;;;;;;;;;;;;;;;;;5065009;28;1416;-79
2022/04/25 11:07:37;;;;;;;;;;;;;;;;;;5065693;28;1694;-81
2022/04/25 11:10:02;;;;;;;;;;;;;;;;;;5064502;28;1331;-79
2022/04/25 11:12:48;;;;;;;;;;;;;;;;;;5067047;28;1252;-76
2022/04/25 11:15:33;;;;;;;;;;;;;;;;;;5066379;28;1439;-75
2022/04/25 11:18:17;;;;;;;;;;;;;;;;;;5066941;28;1311;-78
2022/04/25 11:20:58;;;;;;;;;;;;;;;;;;5066555;28;1589;-79
2022/04/25 11:23:29;;;;;;;;;;;;;;;;;;5062826;28;1894;-76
2022/04/25 11:25:55;;;;;;;;;;;;;;;;;;5062143;28;1416;-80
2022/04/25 11:28:21;;;;;;;;;;;;;;;;;;5059612;28;1462;-79
2022/04/25 11:31:06;;;;;;;;;;;;;;;;;;5061657;28;1235;-76
2022/04/25 11:33:39;;;;;;;;;;;;;;;;;;5062671;28;1211;-78
2022/04/25 11:36:05;;;;;;;;;;;;;;;;;;5061574;28;1409;-78
2022/04/25 11:39:50;;;;;;;;;;;;;;;;;;5062693;28;1247;-78
2022/04/25 11:41:20;;;;;;;;;;;;;;;;;;5062787;28;1873;-78
2022/04/25 11:43:46;;;;;;;;;;;;;;;;;;5061028;28;1967;-78
2022/04/25 11:46:11;;;;;;;;;;;;;;;;;;5059348;28;1435;-78
2022/04/25 11:48:36;;;;;;;;;;;;;;;;;;5061475;28;1278;-77
2022/04/25 11:51:03;;;;;;;;;;;;;;;;;;5061555;28;1329;-78
2022/04/25 11:53:34;;;;;;;;;;;;;;;;;;5062630;28;1285;-78
2022/04/25 11:56:12;;;;;;;;;;;;;;;;;;5061292;28;1243;-78
2022/04/25 11:58:37;;;;;;;;;;;;;;;;;;5059885;28;1355;-77
2022/04/25 12:01:02;;;;;;;;;;;;;;;;;;5063925;28;1267;-78
2022/04/25 12:03:30;;;;;;;;;;;;;;;;;;5062139;28;1891;-78
2022/04/25 12:06:06;;;;;;;;;;;;;;;;;;5060193;28;1043;-78
2022/04/25 12:16:43;;;;;;;;;;;;;;;;;;5063072;28;1080;-78
2022/04/25 12:19:08;;;;;;;;;;;;;;;;;;5062246;28;1348;-78
2022/04/25 12:21:34;;;;;;;;;;;;;;;;;;5061604;28;1239;-77
2022/04/25 12:24:00;;;;;;;;;;;;;;;;;;5061881;28;1901;-78
2022/04/25 12:26:27;;;;;;;;;;;;;;;;;;5062519;28;1223;-75
2022/04/25 12:28:57;;;;;;;;;;;;;;;;;;5061687;28;1367;-78
2022/04/25 12:31:22;;;;;;;;;;;;;;;;;;5061500;28;1270;-78
2022/04/25 12:33:48;;;;;;;;;;;;;;;;;;5060964;28;1306;-78
2022/04/25 12:36:20;;;;;;;;;;;;;;;;;;5061833;28;1325;-79
2022/04/25 12:38:54;;;;;;;;;;;;;;;;;;5058116;28;1360;-79
2022/04/25 12:41:21;;;;;;;;;;;;;;;;;;5061153;28;1223;-78
2022/04/25 12:43:47;;;;;;;;;;;;;;;;;;5060101;28;1894;-78
2022/04/25 12:46:14;;;;;;;;;;;;;;;;;;5061173;28;1255;-78
2022/04/25 12:48:54;;;;;;;;;;;;;;;;;;5063057;28;1181;-78
2022/04/25 12:51:27;;;;;;;;;;;;;;;;;;5060640;28;1254;-78
2022/04/25 12:53:52;;;;;;;;;;;;;;;;;;5061686;28;1251;-77
2022/04/25 12:56:31;;;;;;;;;;;;;;;;;;5059827;28;1471;-78
2022/04/25 12:58:57;;;;;;;;;;;;;;;;;;5059215;28;1345;-78
2022/04/25 13:01:26;;;;;;;;;;;;;;;;;;5060133;28;1447;-78
2022/04/25 13:04:04;;;;;;;;;;;;;;;;;;5060492;28;1955;-79
2022/04/25 13:06:29;;;;;;;;;;;;;;;;;;5059819;28;1176;-78
2022/04/25 13:08:55;;;;;;;;;;;;;;;;;;5057748;28;1475;-77
2022/04/25 13:11:20;;;;;;;;;;;;;;;;;;5059785;28;1490;-77
2022/04/25 13:13:46;;;;;;;;;;;;;;;;;;5060183;28;1302;-78
2022/04/25 13:16:11;;;;;;;;;;;;;;;;;;5060238;28;1267;-78
2022/04/25 13:18:36;;;;;;;;;;;;;;;;;;5059981;28;1512;-77
2022/04/25 13:21:03;;;;;;;;;;;;;;;;;;5061436;28;1407;-77
2022/04/25 13:23:30;;;;;;;;;;;;;;;;;;5061105;28;1901;-78
2022/04/25 13:25:55;;;;;;;;;;;;;;;;;;5059999;28;1355;-79
2022/04/25 13:28:20;;;;;;;;;;;;;;;;;;5060064;28;1623;-79
2022/04/25 13:30:45;;;;;;;;;;;;;;;;;;5060305;28;1352;-78
2022/04/25 13:33:11;;;;;;;;;;;;;;;;;;5058777;28;1356;-78
2022/04/25 13:35:36;;;;;;;;;;;;;;;;;;5060756;28;1314;-79
2022/04/25 13:38:01;;;;;;;;;;;;;;;;;;5059748;28;1305;-80
2022/04/25 13:40:26;;;;;;;;;;;;;;;;;;5060532;28;1395;-74
2022/04/25 13:42:52;;;;;;;;;;;;;;;;;;5059588;28;1890;-72
2022/04/25 13:45:19;;;;;;;;;;;;;;;;;;5059223;28;1306;-72
2022/04/25 13:47:44;;;;;;;;;;;;;;;;;;5058357;28;1351;-72
2022/04/25 13:50:10;;;;;;;;;;;;;;;;;;5058118;28;1423;-72
2022/04/25 13:52:35;;;;;;;;;;;;;;;;;;5057668;28;1354;-71
2022/04/25 13:55:00;;;;;;;;;;;;;;;;;;5059339;28;1262;-71
2022/04/25 13:57:26;;;;;;;;;;;;;;;;;;5059714;28;1259;-71
2022/04/25 13:59:51;;;;;;;;;;;;;;;;;;5059143;28;1274;-71
2022/04/25 14:05:00;;;;;;;;;;;;;;;;;;5059550;28;1127;-71
2022/04/25 14:07:25;;;;;;;;;;;;;;;;;;5059388;28;1306;-70
2022/04/25 14:09:50;;;;;;;;;;;;;;;;;;5056816;28;1326;-71
2022/04/25 14:12:18;;;;;;;;;;;;;;;;;;5060085;28;1329;-71
2022/04/25 14:14:43;;;;;;;;;;;;;;;;;;5054826;28;1372;-71
2022/04/25 14:17:08;;;;;;;;;;;;;;;;;;5054715;28;1388;-71
2022/04/25 14:19:34;;;;;;;;;;;;;;;;;;5055499;28;1464;-71
2022/04/25 14:21:59;;;;;;;;;;;;;;;;;;5056699;28;1344;-71
2022/04/25 14:24:24;;;;;;;;;;;;;;;;;;5059286;28;1948;-72
2022/04/25 14:26:49;;;;;;;;;;;;;;;;;;5058605;28;1378;-71
2022/04/25 14:29:15;;;;;;;;;;;;;;;;;;5058870;28;1385;-72
2022/04/25 14:31:41;;;;;;;;;;;;;;;;;;5058982;28;1227;-71
2022/04/25 14:34:06;;;;;;;;;;;;;;;;;;5059437;28;1239;-71
2022/04/25 14:36:31;;;;;;;;;;;;;;;;;;5058480;28;1393;-71
2022/04/25 14:38:56;;;;;;;;;;;;;;;;;;5058454;28;1328;-71
2022/04/25 14:41:22;;;;;;;;;;;;;;;;;;5058650;28;1395;-72
2022/04/25 14:43:47;;;;;;;;;;;;;;;;;;5057181;28;1897;-72
2022/04/25 14:46:12;;;;;;;;;;;;;;;;;;5062283;28;1363;-73
2022/04/25 14:48:39;;;;;;;;;;;;;;;;;;5061964;28;1321;-72
2022/04/25 14:56:35;;;;;;;;;;;;;;;;;;5061069;28;1275;-71
2022/04/25 14:59:01;;;;;;;;;;;;;;;;;;5061319;28;1552;-71
2022/04/25 15:01:27;;;;;;;;;;;;;;;;;;5061601;28;1531;-71
2022/04/25 15:03:53;;;;;;;;;;;;;;;;;;5063357;28;1959;-71
2022/04/25 15:06:18;;;;;;;;;;;;;;;;;;5061447;28;1302;-72
2022/04/25 15:08:43;;;;;;;;;;;;;;;;;;5061735;28;1750;-71
2022/04/25 15:11:08;;;;;;;;;;;;;;;;;;5061754;28;1336;-71
2022/04/25 15:13:33;;;;;;;;;;;;;;;;;;5061937;28;1299;-71
2022/04/25 15:15:59;;;;;;;;;;;;;;;;;;5061496;28;1516;-71
2022/04/25 15:18:24;;;;;;;;;;;;;;;;;;5060281;28;1420;-71
2022/04/25 15:20:51;;;;;;;;;;;;;;;;;;5060780;28;1420;-70
2022/04/25 15:23:16;;;;;;;;;;;;;;;;;;5059857;28;1979;-70
2022/04/25 15:25:41;;;;;;;;;;;;;;;;;;5060813;28;1771;-70
2022/04/25 15:28:07;;;;;;;;;;;;;;;;;;5060380;28;1606;-71
2022/04/25 15:30:32;;;;;;;;;;;;;;;;;;5060380;28;1340;-70
2022/04/25 15:32:58;;;;;;;;;;;;;;;;;;5060792;28;1347;-72
2022/04/25 15:35:23;;;;;;;;;;;;;;;;;;5058592;28;1622;-71
2022/04/25 15:37:49;;;;;;;;;;;;;;;;;;5056828;28;1524;-74
2022/04/25 15:40:14;;;;;;;;;;;;;;;;;;5055703;28;1594;-75
2022/04/25 15:42:39;;;;;;;;;;;;;;;;;;5061234;28;1965;-74
2022/04/25 15:45:05;;;;;;;;;;;;;;;;;;5062175;28;1337;-74
2022/04/25 15:47:30;;;;;;;;;;;;;;;;;;5063309;28;1314;-74
2022/04/25 15:49:55;;;;;;;;;;;;;;;;;;5055577;28;1683;-74
2022/04/25 15:52:21;;;;;;;;;;;;;;;;;;5058313;28;1741;-74
2022/04/25 15:57:51;;;;;;;;;;;;;;;;;;5057157;28;1544;-75
2022/04/25 16:00:17;;;;;;;;;;;;;;;;;;5064525;28;1339;-75
2022/04/25 16:02:43;;;;;;;;;;;;;;;;;;5067200;28;1879;-75
2022/04/25 16:05:11;;;;;;;;;;;;;;;;;;5061249;28;1661;-74
2022/04/25 16:07:36;;;;;;;;;;;;;;;;;;5060033;28;1243;-75
2022/04/25 16:10:02;;;;;;;;;;;;;;;;;;5060354;28;1320;-75
2022/04/25 16:12:27;;;;;;;;;;;;;;;;;;5061148;28;1243;-75
2022/04/25 16:14:52;;;;;;;;;;;;;;;;;;5061094;28;1275;-74
2022/04/25 16:17:18;;;;;;;;;;;;;;;;;;5062682;28;1322;-75
2022/04/25 16:19:44;;;;;;;;;;;;;;;;;;5061151;28;1326;-75
2022/04/25 16:22:09;;;;;;;;;;;;;;;;;;5061314;28;1351;-74
2022/04/25 16:24:35;;;;;;;;;;;;;;;;;;5061101;28;1906;-74
2022/04/25 16:27:01;;;;;;;;;;;;;;;;;;5059832;28;1404;-74
2022/04/25 16:29:26;;;;;;;;;;;;;;;;;;5060835;28;1312;-75
2022/04/25 16:31:52;;;;;;;;;;;;;;;;;;5055280;28;1598;-76
2022/04/25 16:34:18;;;;;;;;;;;;;;;;;;5061618;28;1613;-76
2022/04/25 16:36:46;;;;;;;;;;;;;;;;;;5061326;28;1120;-75
2022/04/25 16:39:11;;;;;;;;;;;;;;;;;;5060472;28;1299;-76
2022/04/25 16:41:37;;;;;;;;;;;;;;;;;;5060403;28;1666;-77
2022/04/25 16:44:02;;;;;;;;;;;;;;;;;;5062228;28;1898;-75
2022/04/25 16:46:28;;;;;;;;;;;;;;;;;;5061863;28;1654;-77
2022/04/25 16:48:53;;;;;;;;;;;;;;;;;;5061999;28;1341;-77
2022/04/25 16:51:18;;;;;;;;;;;;;;;;;;5059986;28;1379;-77
2022/04/25 16:53:43;;;;;;;;;;;;;;;;;;5060536;28;1235;-77
2022/04/25 16:56:09;;;;;;;;;;;;;;;;;;5060907;28;1372;-73
2022/04/25 16:58:34;;;;;;;;;;;;;;;;;;5058691;28;1440;-73
2022/04/25 17:00:59;;;;;;;;;;;;;;;;;;5060277;28;1481;-81
2022/04/25 17:03:24;;;;;;;;;;;;;;;;;;5060832;28;1894;-79
2022/04/25 17:05:55;;;;;;;;;;;;;;;;;;5057783;28;1408;-82
2022/04/25 17:08:20;;;;;;;;;;;;;;;;;;5059524;28;1324;-80
2022/04/25 17:10:45;;;;;;;;;;;;;;;;;;5059856;28;1215;-81
2022/04/25 17:13:11;;;;;;;;;;;;;;;;;;5059219;28;1322;-80
2022/04/25 17:15:36;;;;;;;;;;;;;;;;;;5060150;28;1255;-81
2022/04/25 17:18:02;;;;;;;;;;;;;;;;;;5060242;28;1283;-81
2022/04/25 17:20:27;;;;;;;;;;;;;;;;;;5060272;28;1049;-81
2022/04/25 17:22:52;;;;;;;;;;;;;;;;;;5058487;28;1902;-78
2022/04/25 17:25:17;;;;;;;;;;;;;;;;;;5060716;28;1203;-79
2022/04/25 17:27:42;;;;;;;;;;;;;;;;;;5060782;28;1274;-79
2022/04/25 17:30:08;;;;;;;;;;;;;;;;;;5062653;28;1235;-79
2022/04/25 17:35:27;;;;;;;;;;;;;;;;;;5040479;28;1282;-80
